createdAt,value
2017-05-17T00:00:36.457Z,0
2017-05-17T00:01:46.440Z,0
2017-05-17T00:02:56.749Z,0
2017-05-17T00:04:07.286Z,0
2017-05-17T00:05:17.584Z,0
2017-05-17T00:06:27.882Z,0
2017-05-17T00:07:38.173Z,0
2017-05-17T00:08:48.463Z,0
2017-05-17T00:09:59.015Z,0
2017-05-17T00:11:08.996Z,0
2017-05-17T00:12:18.975Z,0
2017-05-17T00:13:29.272Z,0
2017-05-17T00:14:39.574Z,0
2017-05-17T00:15:49.541Z,0
2017-05-17T00:16:59.834Z,0
2017-05-17T00:18:10.120Z,0
2017-05-17T00:19:20.413Z,0
2017-05-17T00:20:30.695Z,0
2017-05-17T00:21:41.222Z,0
2017-05-17T00:22:51.534Z,0
2017-05-17T00:24:01.810Z,0
2017-05-17T00:25:11.780Z,0
2017-05-17T00:26:22.066Z,0
2017-05-17T00:27:32.656Z,0
2017-05-17T00:28:42.658Z,0
2017-05-17T00:29:52.957Z,0
2017-05-17T00:31:02.611Z,0
2017-05-17T00:32:12.896Z,0
2017-05-17T00:33:23.126Z,0
2017-05-17T00:34:33.407Z,0
2017-05-17T00:35:43.742Z,0
2017-05-17T00:36:54.055Z,0
2017-05-17T00:38:04.337Z,0
2017-05-17T00:39:14.886Z,0
2017-05-17T00:40:25.169Z,0
2017-05-17T00:41:35.452Z,0
2017-05-17T00:42:45.745Z,0
2017-05-17T00:43:56.031Z,0
2017-05-17T00:45:06.568Z,0
2017-05-17T00:46:16.857Z,0
2017-05-17T00:47:27.140Z,0
2017-05-17T00:48:37.423Z,0
2017-05-17T00:49:47.709Z,0
2017-05-17T00:50:57.939Z,0
2017-05-17T00:52:08.235Z,0
2017-05-17T00:53:18.515Z,0
2017-05-17T00:54:28.541Z,0
2017-05-17T00:55:38.825Z,0
2017-05-17T00:56:49.050Z,0
2017-05-17T00:57:59.073Z,0
2017-05-17T00:59:09.363Z,0
2017-05-17T01:00:19.338Z,0
2017-05-17T01:01:29.632Z,0
2017-05-17T01:02:40.165Z,0
2017-05-17T01:03:50.449Z,0
2017-05-17T01:05:00.735Z,0
2017-05-17T01:06:10.728Z,0
2017-05-17T01:07:21.015Z,0
2017-05-17T01:08:31.546Z,0
2017-05-17T01:09:41.518Z,0
2017-05-17T01:10:51.502Z,0
2017-05-17T01:12:01.781Z,0
2017-05-17T01:13:11.452Z,0
2017-05-17T01:14:21.995Z,0
2017-05-17T01:15:32.290Z,0
2017-05-17T01:16:42.573Z,0
2017-05-17T01:17:52.862Z,0
2017-05-17T01:19:03.147Z,0
2017-05-17T01:20:13.364Z,0
2017-05-17T01:21:23.333Z,0
2017-05-17T01:22:32.994Z,0
2017-05-17T01:23:43.286Z,0
2017-05-17T01:24:53.573Z,0
2017-05-17T01:26:04.107Z,0
2017-05-17T01:27:14.387Z,0
2017-05-17T01:28:24.372Z,0
2017-05-17T01:29:34.352Z,0
2017-05-17T01:30:44.711Z,0
2017-05-17T01:31:54.930Z,0
2017-05-17T01:33:04.901Z,0
2017-05-17T01:34:14.877Z,0
2017-05-17T01:35:25.163Z,0
2017-05-17T01:36:35.138Z,0
2017-05-17T01:37:45.376Z,0
2017-05-17T01:38:55.355Z,0
2017-05-17T01:40:05.340Z,0
2017-05-17T01:41:15.322Z,0
2017-05-17T01:42:25.609Z,0
2017-05-17T01:43:36.180Z,0
2017-05-17T01:44:46.469Z,0
2017-05-17T01:45:56.750Z,0
2017-05-17T01:47:07.038Z,0
2017-05-17T01:48:17.323Z,0
2017-05-17T01:49:27.557Z,0
2017-05-17T01:50:37.835Z,0
2017-05-17T01:51:48.122Z,0
2017-05-17T01:52:57.480Z,0
2017-05-17T01:54:07.779Z,0
2017-05-17T01:55:18.003Z,0
2017-05-17T01:56:28.284Z,0
2017-05-17T01:57:38.569Z,0
2017-05-17T01:58:48.553Z,0
2017-05-17T01:59:58.858Z,0
2017-05-17T02:01:09.407Z,0
2017-05-17T02:02:19.689Z,0
2017-05-17T02:03:29.346Z,0
2017-05-17T02:04:39.636Z,0
2017-05-17T02:05:49.602Z,0
2017-05-17T02:07:00.142Z,0
2017-05-17T02:08:10.430Z,0
2017-05-17T02:09:20.727Z,0
2017-05-17T02:10:31.016Z,0
2017-05-17T02:11:41.294Z,0
2017-05-17T02:12:51.843Z,0
2017-05-17T02:14:02.176Z,0
2017-05-17T02:15:12.458Z,0
2017-05-17T02:16:22.794Z,0
2017-05-17T02:17:32.792Z,0
2017-05-17T02:18:43.320Z,0
2017-05-17T02:19:53.602Z,0
2017-05-17T02:21:03.899Z,0
2017-05-17T02:22:13.556Z,0
2017-05-17T02:23:23.842Z,0
2017-05-17T02:24:34.068Z,0
2017-05-17T02:25:44.040Z,0
2017-05-17T02:26:54.323Z,0
2017-05-17T02:28:04.608Z,0
2017-05-17T02:29:14.582Z,0
2017-05-17T02:30:25.118Z,0
2017-05-17T02:31:35.404Z,0
2017-05-17T02:32:45.699Z,0
2017-05-17T02:33:55.993Z,0
2017-05-17T02:35:05.985Z,0
2017-05-17T02:36:16.210Z,0
2017-05-17T02:37:26.517Z,0
2017-05-17T02:38:36.492Z,0
2017-05-17T02:39:46.467Z,0
2017-05-17T02:40:56.441Z,0
2017-05-17T02:42:06.982Z,0
2017-05-17T02:43:17.267Z,0
2017-05-17T02:44:27.237Z,0
2017-05-17T02:45:37.269Z,0
2017-05-17T02:46:47.252Z,0
2017-05-17T02:47:57.482Z,0
2017-05-17T02:49:07.768Z,0
2017-05-17T02:50:18.062Z,0
2017-05-17T02:51:28.036Z,0
2017-05-17T02:52:38.326Z,0
2017-05-17T02:53:48.553Z,0
2017-05-17T02:54:58.530Z,0
2017-05-17T02:56:08.816Z,0
2017-05-17T02:57:19.098Z,0
2017-05-17T02:58:29.377Z,0
2017-05-17T02:59:39.911Z,0
2017-05-17T03:00:50.200Z,0
2017-05-17T03:02:00.494Z,0
2017-05-17T03:03:10.794Z,0
2017-05-17T03:04:21.079Z,0
2017-05-17T03:05:31.616Z,0
2017-05-17T03:06:41.593Z,0
2017-05-17T03:07:51.881Z,0
2017-05-17T03:09:02.166Z,0
2017-05-17T03:10:12.455Z,0
2017-05-17T03:11:22.995Z,0
2017-05-17T03:12:32.959Z,0
2017-05-17T03:13:43.241Z,0
2017-05-17T03:14:53.226Z,0
2017-05-17T03:16:03.512Z,0
2017-05-17T03:17:14.053Z,0
2017-05-17T03:18:24.338Z,0
2017-05-17T03:19:34.306Z,0
2017-05-17T03:20:44.595Z,0
2017-05-17T03:21:54.565Z,0
2017-05-17T03:23:05.101Z,0
2017-05-17T03:24:15.384Z,0
2017-05-17T03:25:25.679Z,0
2017-05-17T03:26:35.959Z,0
2017-05-17T03:27:46.244Z,0
2017-05-17T03:28:56.833Z,0
2017-05-17T03:30:07.122Z,0
2017-05-17T03:31:17.090Z,0
2017-05-17T03:32:27.394Z,0
2017-05-17T03:33:37.688Z,0
2017-05-17T03:34:48.219Z,0
2017-05-17T03:35:58.504Z,0
2017-05-17T03:37:08.896Z,0
2017-05-17T03:38:19.180Z,0
2017-05-17T03:39:29.462Z,0
2017-05-17T03:40:44.592Z,0
2017-05-17T03:41:54.878Z,0
2017-05-17T03:43:05.164Z,0
2017-05-17T03:44:15.439Z,0
2017-05-17T03:45:25.742Z,0
2017-05-17T03:46:36.018Z,0
2017-05-17T03:47:45.986Z,0
2017-05-17T03:48:55.961Z,0
2017-05-17T03:50:06.260Z,0
2017-05-17T03:51:16.545Z,0
2017-05-17T03:52:27.137Z,0
2017-05-17T03:53:36.803Z,0
2017-05-17T03:54:47.092Z,0
2017-05-17T03:55:57.060Z,0
2017-05-17T03:57:07.364Z,0
2017-05-17T03:58:17.907Z,0
2017-05-17T03:59:27.574Z,0
2017-05-17T04:00:38.571Z,0
2017-05-17T04:01:48.859Z,0
2017-05-17T04:02:58.868Z,0
2017-05-17T04:04:09.413Z,0
2017-05-17T04:05:19.701Z,0
2017-05-17T04:06:29.984Z,0
2017-05-17T04:07:39.986Z,35
2017-05-17T04:08:50.269Z,35
2017-05-17T04:10:00.189Z,35
2017-05-17T04:11:10.171Z,35
2017-05-17T04:12:20.144Z,35
2017-05-17T04:13:30.142Z,40
2017-05-17T04:14:40.425Z,40
2017-05-17T04:15:50.651Z,40
2017-05-17T04:17:00.939Z,45
2017-05-17T04:18:11.233Z,45
2017-05-17T04:19:21.212Z,45
2017-05-17T04:20:31.497Z,45
2017-05-17T04:21:42.032Z,55
2017-05-17T04:22:52.317Z,65
2017-05-17T04:24:01.990Z,65
2017-05-17T04:25:11.961Z,65
2017-05-17T04:26:22.250Z,60
2017-05-17T04:27:32.480Z,70
2017-05-17T04:28:42.772Z,90
2017-05-17T04:29:53.057Z,95
2017-05-17T04:31:03.345Z,95
2017-05-17T04:32:13.631Z,100
2017-05-17T04:33:24.175Z,100
2017-05-17T04:34:34.463Z,95
2017-05-17T04:35:44.451Z,95
2017-05-17T04:36:54.731Z,95
2017-05-17T04:38:04.723Z,95
2017-05-17T04:39:15.265Z,95
2017-05-17T04:40:25.234Z,95
2017-05-17T04:41:35.516Z,100
2017-05-17T04:42:45.502Z,100
2017-05-17T04:43:55.786Z,105
2017-05-17T04:45:06.073Z,110
2017-05-17T04:46:16.038Z,105
2017-05-17T04:47:26.334Z,105
2017-05-17T04:48:36.303Z,100
2017-05-17T04:49:46.609Z,100
2017-05-17T04:50:57.162Z,110
2017-05-17T04:52:07.447Z,105
2017-05-17T04:53:17.422Z,100
2017-05-17T04:54:27.725Z,100
2017-05-17T04:55:38.070Z,115
2017-05-17T04:56:48.300Z,115
2017-05-17T04:57:58.292Z,115
2017-05-17T04:59:08.280Z,120
2017-05-17T05:00:18.565Z,120
2017-05-17T05:01:28.233Z,120
2017-05-17T05:02:38.785Z,120
2017-05-17T05:03:49.081Z,125
2017-05-17T05:04:59.374Z,115
2017-05-17T05:06:09.665Z,105
2017-05-17T05:07:19.638Z,105
2017-05-17T05:08:30.186Z,110
2017-05-17T05:09:39.841Z,110
2017-05-17T05:10:50.147Z,115
2017-05-17T05:12:00.120Z,115
2017-05-17T05:13:10.098Z,115
2017-05-17T05:14:20.649Z,110
2017-05-17T05:15:30.950Z,110
2017-05-17T05:16:40.934Z,110
2017-05-17T05:17:50.913Z,110
2017-05-17T05:19:01.221Z,110
2017-05-17T05:20:11.861Z,110
2017-05-17T05:21:22.160Z,110
2017-05-17T05:22:32.477Z,110
2017-05-17T05:23:42.149Z,115
2017-05-17T05:24:52.118Z,105
2017-05-17T05:26:02.667Z,110
2017-05-17T05:27:12.963Z,110
2017-05-17T05:28:23.268Z,110
2017-05-17T05:29:33.571Z,110
2017-05-17T05:30:43.553Z,110
2017-05-17T05:31:54.806Z,110
2017-05-17T05:33:04.791Z,110
2017-05-17T05:34:15.084Z,110
2017-05-17T05:35:25.383Z,105
2017-05-17T05:36:35.671Z,105
2017-05-17T05:37:46.283Z,105
2017-05-17T05:38:56.285Z,105
2017-05-17T05:40:06.003Z,105
2017-05-17T05:41:16.063Z,110
2017-05-17T05:42:26.360Z,110
2017-05-17T05:43:36.909Z,110
2017-05-17T05:44:47.275Z,105
2017-05-17T05:45:57.248Z,105
2017-05-17T05:47:07.606Z,105
2017-05-17T05:48:17.907Z,105
2017-05-17T05:49:28.513Z,105
2017-05-17T05:50:38.815Z,100
2017-05-17T05:51:48.814Z,105
2017-05-17T05:52:59.150Z,105
2017-05-17T05:54:09.456Z,105
2017-05-17T05:55:20.083Z,105
2017-05-17T05:56:30.391Z,105
2017-05-17T05:57:40.703Z,105
2017-05-17T05:58:51.030Z,105
2017-05-17T06:00:01.370Z,105
2017-05-17T06:01:11.641Z,100
2017-05-17T06:02:22.013Z,100
2017-05-17T06:03:32.340Z,105
2017-05-17T06:04:42.638Z,100
2017-05-17T06:05:52.946Z,105
2017-05-17T06:07:03.514Z,105
2017-05-17T06:08:13.543Z,105
2017-05-17T06:09:23.592Z,105
2017-05-17T06:10:33.891Z,100
2017-05-17T06:11:44.193Z,105
2017-05-17T06:12:54.783Z,105
2017-05-17T06:14:04.774Z,105
2017-05-17T06:15:14.758Z,105
2017-05-17T06:16:25.046Z,105
2017-05-17T06:17:35.039Z,105
2017-05-17T06:18:44.957Z,105
2017-05-17T06:19:55.239Z,105
2017-05-17T06:21:05.223Z,105
2017-05-17T06:22:15.213Z,105
2017-05-17T06:23:24.911Z,100
2017-05-17T06:24:35.458Z,100
2017-05-17T06:25:45.489Z,100
2017-05-17T06:26:55.835Z,100
2017-05-17T06:28:06.147Z,100
2017-05-17T06:29:16.447Z,100
2017-05-17T06:30:27.288Z,100
2017-05-17T06:31:37.270Z,100
2017-05-17T06:32:47.559Z,100
2017-05-17T06:33:57.541Z,100
2017-05-17T06:35:07.838Z,100
2017-05-17T06:36:18.374Z,100
2017-05-17T06:37:28.721Z,95
2017-05-17T06:38:39.022Z,100
2017-05-17T06:39:49.007Z,100
2017-05-17T06:40:59.304Z,100
2017-05-17T06:42:09.557Z,100
2017-05-17T06:43:19.851Z,100
2017-05-17T06:44:30.157Z,100
2017-05-17T06:45:40.464Z,100
2017-05-17T06:46:50.790Z,100
2017-05-17T06:48:01.067Z,100
2017-05-17T06:49:11.455Z,100
2017-05-17T06:50:21.687Z,100
2017-05-17T06:51:31.978Z,100
2017-05-17T06:52:41.999Z,100
2017-05-17T06:53:52.572Z,95
2017-05-17T06:55:02.906Z,85
2017-05-17T06:56:12.929Z,80
2017-05-17T06:57:23.242Z,80
2017-05-17T06:58:33.543Z,85
2017-05-17T06:59:44.093Z,90
2017-05-17T07:00:54.083Z,95
2017-05-17T07:02:04.384Z,95
2017-05-17T07:03:14.684Z,95
2017-05-17T07:04:25.012Z,95
2017-05-17T07:05:35.574Z,95
2017-05-17T07:06:45.888Z,95
2017-05-17T07:07:56.206Z,95
2017-05-17T07:09:06.713Z,95
2017-05-17T07:10:17.026Z,95
2017-05-17T07:11:27.601Z,95
2017-05-17T07:12:37.908Z,95
2017-05-17T07:13:48.212Z,95
2017-05-17T07:14:58.509Z,90
2017-05-17T07:16:08.501Z,90
2017-05-17T07:17:19.040Z,90
2017-05-17T07:18:29.048Z,95
2017-05-17T07:19:39.353Z,95
2017-05-17T07:20:49.325Z,95
2017-05-17T07:21:59.685Z,95
2017-05-17T07:23:09.975Z,95
2017-05-17T07:24:20.292Z,95
2017-05-17T07:25:30.302Z,95
2017-05-17T07:26:40.281Z,95
2017-05-17T07:27:50.617Z,95
2017-05-17T07:29:00.855Z,95
2017-05-17T07:30:11.146Z,95
2017-05-17T07:31:21.439Z,95
2017-05-17T07:32:31.726Z,95
2017-05-17T07:33:42.034Z,95
2017-05-17T07:34:52.600Z,95
2017-05-17T07:36:02.907Z,95
2017-05-17T07:37:12.897Z,100
2017-05-17T07:38:23.202Z,95
2017-05-17T07:39:33.191Z,95
2017-05-17T07:40:43.729Z,95
2017-05-17T07:41:54.034Z,95
2017-05-17T07:43:04.025Z,95
2017-05-17T07:44:14.003Z,95
2017-05-17T07:45:24.302Z,95
2017-05-17T07:46:34.890Z,95
2017-05-17T07:47:45.185Z,95
2017-05-17T07:48:55.164Z,95
2017-05-17T07:50:05.467Z,90
2017-05-17T07:51:15.761Z,90
2017-05-17T07:52:26.330Z,90
2017-05-17T07:53:36.629Z,90
2017-05-17T07:54:46.650Z,90
2017-05-17T07:55:56.958Z,90
2017-05-17T07:57:07.254Z,90
2017-05-17T07:58:17.805Z,90
2017-05-17T07:59:28.099Z,90
2017-05-17T08:00:38.078Z,95
2017-05-17T08:01:47.749Z,95
2017-05-17T08:02:57.791Z,95
2017-05-17T08:04:08.341Z,95
2017-05-17T08:05:18.317Z,95
2017-05-17T08:06:28.309Z,95
2017-05-17T08:07:38.297Z,95
2017-05-17T08:08:48.583Z,95
2017-05-17T08:09:59.132Z,95
2017-05-17T08:11:09.431Z,95
2017-05-17T08:12:19.414Z,95
2017-05-17T08:13:29.712Z,95
2017-05-17T08:14:40.005Z,95
2017-05-17T08:15:50.229Z,95
2017-05-17T08:17:00.211Z,95
2017-05-17T08:18:10.513Z,95
2017-05-17T08:19:20.826Z,95
2017-05-17T08:20:31.224Z,95
2017-05-17T08:21:41.775Z,95
2017-05-17T08:22:51.774Z,95
2017-05-17T08:24:01.795Z,90
2017-05-17T08:25:12.096Z,90
2017-05-17T08:26:22.071Z,90
2017-05-17T08:27:32.369Z,90
2017-05-17T08:28:42.350Z,90
2017-05-17T08:29:52.670Z,90
2017-05-17T08:31:02.341Z,85
2017-05-17T08:32:12.636Z,85
2017-05-17T08:33:22.875Z,85
2017-05-17T08:34:32.564Z,80
2017-05-17T08:35:42.857Z,80
2017-05-17T08:36:53.153Z,80
2017-05-17T08:38:03.459Z,80
2017-05-17T08:39:13.441Z,80
2017-05-17T08:40:23.762Z,80
2017-05-17T08:41:34.059Z,80
2017-05-17T08:42:44.380Z,80
2017-05-17T08:43:54.374Z,80
2017-05-17T08:45:04.637Z,80
2017-05-17T08:46:14.652Z,80
2017-05-17T08:47:24.646Z,80
2017-05-17T08:48:34.965Z,80
2017-05-17T08:49:45.265Z,80
2017-05-17T08:50:55.821Z,80
2017-05-17T08:52:05.817Z,80
2017-05-17T08:53:15.818Z,80
2017-05-17T08:54:26.124Z,80
2017-05-17T08:55:36.472Z,80
2017-05-17T08:56:46.399Z,80
2017-05-17T08:57:56.707Z,80
2017-05-17T08:59:07.032Z,80
2017-05-17T09:00:17.355Z,80
2017-05-17T09:01:27.653Z,80
2017-05-17T09:02:38.208Z,75
2017-05-17T09:03:48.260Z,75
2017-05-17T09:04:58.597Z,75
2017-05-17T09:06:08.920Z,75
2017-05-17T09:07:19.273Z,75
2017-05-17T09:08:29.825Z,75
2017-05-17T09:09:40.126Z,75
2017-05-17T09:10:50.462Z,75
2017-05-17T09:12:00.807Z,75
2017-05-17T09:13:10.808Z,75
2017-05-17T09:14:21.146Z,75
2017-05-17T09:15:31.453Z,75
2017-05-17T09:16:41.749Z,75
2017-05-17T09:17:51.728Z,75
2017-05-17T09:19:01.711Z,75
2017-05-17T09:20:11.990Z,75
2017-05-17T09:21:22.290Z,75
2017-05-17T09:22:32.315Z,75
2017-05-17T09:23:42.659Z,75
2017-05-17T09:24:53.008Z,75
2017-05-17T09:26:03.631Z,75
2017-05-17T09:27:13.314Z,75
2017-05-17T09:28:23.621Z,75
2017-05-17T09:29:33.925Z,75
2017-05-17T09:30:44.241Z,75
2017-05-17T09:31:54.517Z,75
2017-05-17T09:33:04.832Z,75
2017-05-17T09:34:14.511Z,75
2017-05-17T09:35:24.802Z,75
2017-05-17T09:36:35.116Z,75
2017-05-17T09:37:45.353Z,75
2017-05-17T09:38:55.347Z,75
2017-05-17T09:40:05.648Z,75
2017-05-17T09:41:15.939Z,75
2017-05-17T09:42:25.625Z,80
2017-05-17T09:43:35.401Z,80
2017-05-17T09:44:45.468Z,80
2017-05-17T09:45:55.855Z,80
2017-05-17T09:47:06.278Z,80
2017-05-17T09:48:16.609Z,85
2017-05-17T09:49:26.918Z,85
2017-05-17T09:50:36.907Z,85
2017-05-17T09:51:47.192Z,80
2017-05-17T09:52:57.489Z,80
2017-05-17T09:54:07.475Z,80
2017-05-17T09:55:18.039Z,80
2017-05-17T09:56:28.011Z,80
2017-05-17T09:57:38.309Z,80
2017-05-17T09:58:48.647Z,80
2017-05-17T09:59:58.327Z,80
2017-05-17T10:01:08.260Z,80
2017-05-17T10:02:18.250Z,80
2017-05-17T10:03:28.550Z,80
2017-05-17T10:04:38.548Z,80
2017-05-17T10:05:48.867Z,75
2017-05-17T10:06:59.420Z,75
2017-05-17T10:08:09.711Z,75
2017-05-17T10:09:19.685Z,75
2017-05-17T10:10:29.359Z,70
2017-05-17T10:11:39.674Z,70
2017-05-17T10:12:50.248Z,70
2017-05-17T10:14:00.338Z,70
2017-05-17T10:15:10.348Z,70
2017-05-17T10:16:20.357Z,70
2017-05-17T10:17:30.638Z,70
2017-05-17T10:18:41.187Z,70
2017-05-17T10:19:51.504Z,70
2017-05-17T10:21:01.811Z,70
2017-05-17T10:22:11.790Z,70
2017-05-17T10:23:22.076Z,70
2017-05-17T10:24:32.661Z,70
2017-05-17T10:25:42.967Z,70
2017-05-17T10:26:53.282Z,70
2017-05-17T10:28:03.587Z,70
2017-05-17T10:29:13.884Z,70
2017-05-17T10:30:24.120Z,75
2017-05-17T10:31:34.157Z,75
2017-05-17T10:32:44.159Z,75
2017-05-17T10:33:54.455Z,70
2017-05-17T10:35:04.747Z,70
2017-05-17T10:36:15.285Z,70
2017-05-17T10:37:25.285Z,70
2017-05-17T10:38:35.270Z,70
2017-05-17T10:39:45.572Z,70
2017-05-17T10:40:55.869Z,70
2017-05-17T10:42:06.431Z,70
2017-05-17T10:43:16.729Z,70
2017-05-17T10:44:26.720Z,70
2017-05-17T10:45:37.020Z,70
2017-05-17T10:46:47.664Z,70
2017-05-17T10:47:58.286Z,70
2017-05-17T10:49:08.586Z,70
2017-05-17T10:50:18.953Z,70
2017-05-17T10:51:28.963Z,70
2017-05-17T10:52:39.263Z,70
2017-05-17T10:53:49.810Z,70
2017-05-17T10:55:00.100Z,70
2017-05-17T10:56:10.401Z,70
2017-05-17T10:57:20.408Z,70
2017-05-17T10:58:30.411Z,70
2017-05-17T10:59:40.955Z,70
2017-05-17T11:00:51.283Z,70
2017-05-17T11:02:01.253Z,70
2017-05-17T11:03:11.272Z,70
2017-05-17T11:04:21.599Z,70
2017-05-17T11:05:31.850Z,70
2017-05-17T11:06:42.172Z,65
2017-05-17T11:07:52.164Z,65
2017-05-17T11:09:02.487Z,65
2017-05-17T11:10:12.768Z,65
2017-05-17T11:11:23.314Z,65
2017-05-17T11:12:33.603Z,65
2017-05-17T11:13:43.904Z,65
2017-05-17T11:14:54.226Z,65
2017-05-17T11:16:04.704Z,65
2017-05-17T11:17:14.967Z,65
2017-05-17T11:18:25.296Z,65
2017-05-17T11:19:35.603Z,65
2017-05-17T11:20:45.691Z,65
2017-05-17T11:21:55.713Z,65
2017-05-17T11:23:06.279Z,65
2017-05-17T11:24:16.583Z,65
2017-05-17T11:25:26.871Z,65
2017-05-17T11:26:37.185Z,65
2017-05-17T11:27:47.500Z,65
2017-05-17T11:28:58.071Z,65
2017-05-17T11:30:07.745Z,65
2017-05-17T11:31:18.152Z,65
2017-05-17T11:32:28.481Z,65
2017-05-17T11:33:38.796Z,65
2017-05-17T11:34:49.120Z,65
2017-05-17T11:35:59.414Z,65
2017-05-17T11:37:09.706Z,65
2017-05-17T11:38:19.692Z,65
2017-05-17T11:39:29.408Z,65
2017-05-17T11:40:39.663Z,65
2017-05-17T11:41:49.661Z,65
2017-05-17T11:42:59.968Z,65
2017-05-17T11:44:09.979Z,65
2017-05-17T11:45:20.280Z,65
2017-05-17T11:46:30.878Z,65
2017-05-17T11:47:40.867Z,65
2017-05-17T11:48:51.192Z,65
2017-05-17T11:50:01.496Z,65
2017-05-17T11:51:11.482Z,65
2017-05-17T11:52:22.049Z,65
2017-05-17T11:53:32.367Z,65
2017-05-17T11:54:42.359Z,65
2017-05-17T11:55:52.647Z,65
2017-05-17T11:57:02.939Z,65
2017-05-17T11:58:13.313Z,60
2017-05-17T11:59:23.613Z,60
2017-05-17T12:00:33.601Z,60
2017-05-17T12:01:43.918Z,60
2017-05-17T12:02:54.228Z,60
2017-05-17T12:04:04.462Z,60
2017-05-17T12:05:14.756Z,60
2017-05-17T12:06:25.053Z,60
2017-05-17T12:07:35.038Z,60
2017-05-17T12:08:45.332Z,60
2017-05-17T12:09:55.578Z,60
2017-05-17T12:11:05.881Z,60
2017-05-17T12:12:16.220Z,60
2017-05-17T12:13:26.190Z,60
2017-05-17T12:14:36.473Z,60
2017-05-17T12:15:47.026Z,60
2017-05-17T12:16:57.346Z,60
2017-05-17T12:18:07.639Z,60
2017-05-17T12:19:17.926Z,60
2017-05-17T12:20:28.214Z,60
2017-05-17T12:21:38.494Z,60
2017-05-17T12:22:48.780Z,60
2017-05-17T12:23:59.090Z,60
2017-05-17T12:25:09.379Z,60
2017-05-17T12:26:19.672Z,60
2017-05-17T12:27:30.235Z,60
2017-05-17T12:28:40.686Z,60
2017-05-17T12:29:50.670Z,60
2017-05-17T12:31:00.658Z,60
2017-05-17T12:32:10.952Z,60
2017-05-17T12:33:21.211Z,60
2017-05-17T12:34:31.503Z,60
2017-05-17T12:35:41.526Z,60
2017-05-17T12:36:51.519Z,60
2017-05-17T12:38:01.822Z,60
2017-05-17T12:39:12.419Z,60
2017-05-17T12:40:22.407Z,60
2017-05-17T12:41:32.708Z,60
2017-05-17T12:42:43.009Z,60
2017-05-17T12:43:53.309Z,60
2017-05-17T12:45:03.555Z,60
2017-05-17T12:46:13.837Z,60
2017-05-17T12:47:24.124Z,60
2017-05-17T12:48:34.419Z,65
2017-05-17T12:49:44.782Z,65
2017-05-17T12:50:55.634Z,65
2017-05-17T12:52:05.994Z,65
2017-05-17T12:53:16.301Z,65
2017-05-17T12:54:26.412Z,65
2017-05-17T12:55:36.729Z,65
2017-05-17T12:56:47.289Z,60
2017-05-17T12:57:57.590Z,60
2017-05-17T12:59:07.898Z,60
2017-05-17T13:00:18.195Z,60
2017-05-17T13:01:28.532Z,55
2017-05-17T13:02:39.084Z,55
2017-05-17T13:03:49.088Z,60
2017-05-17T13:04:59.389Z,60
2017-05-17T13:06:09.691Z,55
2017-05-17T13:07:19.989Z,55
2017-05-17T13:08:30.282Z,55
2017-05-17T13:09:40.577Z,55
2017-05-17T13:10:50.877Z,60
2017-05-17T13:12:01.215Z,60
2017-05-17T13:13:11.506Z,60
2017-05-17T13:14:22.043Z,60
2017-05-17T13:15:32.015Z,60
2017-05-17T13:16:42.019Z,60
2017-05-17T13:17:52.325Z,60
2017-05-17T13:19:02.299Z,60
2017-05-17T13:20:12.533Z,60
2017-05-17T13:21:22.829Z,60
2017-05-17T13:22:32.879Z,65
2017-05-17T13:23:43.172Z,70
2017-05-17T13:24:53.158Z,80
2017-05-17T13:26:03.395Z,80
2017-05-17T13:27:13.391Z,80
2017-05-17T13:28:23.688Z,75
2017-05-17T13:29:33.982Z,75
2017-05-17T13:30:43.967Z,75
2017-05-17T13:31:54.565Z,70
2017-05-17T13:33:04.859Z,70
2017-05-17T13:34:15.164Z,65
2017-05-17T13:35:25.475Z,60
2017-05-17T13:36:35.760Z,60
2017-05-17T13:37:46.302Z,60
2017-05-17T13:38:56.605Z,60
2017-05-17T13:40:06.904Z,55
2017-05-17T13:41:16.915Z,55
2017-05-17T13:42:27.209Z,55
2017-05-17T13:43:37.489Z,55
2017-05-17T13:44:47.774Z,55
2017-05-17T13:45:58.087Z,55
2017-05-17T13:47:08.713Z,55
2017-05-17T13:48:19.004Z,55
2017-05-17T13:49:29.254Z,60
2017-05-17T13:50:39.558Z,60
2017-05-17T13:51:49.535Z,60
2017-05-17T13:52:59.849Z,55
2017-05-17T13:54:10.141Z,60
2017-05-17T13:55:20.703Z,60
2017-05-17T13:56:30.690Z,55
2017-05-17T13:57:40.687Z,55
2017-05-17T13:58:50.991Z,55
2017-05-17T14:00:00.984Z,55
2017-05-17T14:01:11.519Z,55
2017-05-17T14:02:21.522Z,55
2017-05-17T14:03:31.823Z,55
2017-05-17T14:04:42.136Z,55
2017-05-17T14:05:52.432Z,55
2017-05-17T14:07:02.978Z,55
2017-05-17T14:08:12.976Z,55
2017-05-17T14:09:23.263Z,55
2017-05-17T14:10:33.558Z,55
2017-05-17T14:11:43.846Z,55
2017-05-17T14:12:54.383Z,55
2017-05-17T14:14:04.382Z,55
2017-05-17T14:15:14.668Z,55
2017-05-17T14:16:24.964Z,55
2017-05-17T14:17:34.940Z,55
2017-05-17T14:18:45.191Z,55
2017-05-17T14:19:54.857Z,55
2017-05-17T14:21:05.145Z,55
2017-05-17T14:22:15.445Z,55
2017-05-17T14:23:25.739Z,50
2017-05-17T14:24:35.980Z,50
2017-05-17T14:25:46.284Z,50
2017-05-17T14:26:56.265Z,50
2017-05-17T14:28:06.572Z,50
2017-05-17T14:29:16.244Z,50
2017-05-17T14:30:26.855Z,50
2017-05-17T14:31:37.158Z,50
2017-05-17T14:32:47.505Z,50
2017-05-17T14:33:57.810Z,50
2017-05-17T14:35:08.128Z,50
2017-05-17T14:36:18.677Z,50
2017-05-17T14:37:28.041Z,50
2017-05-17T14:38:38.071Z,50
2017-05-17T14:39:48.364Z,50
2017-05-17T14:40:58.343Z,50
2017-05-17T14:42:08.598Z,50
2017-05-17T14:43:18.634Z,50
2017-05-17T14:44:28.620Z,50
2017-05-17T14:45:38.917Z,50
2017-05-17T14:46:49.292Z,50
2017-05-17T14:47:59.843Z,50
2017-05-17T14:49:10.145Z,50
2017-05-17T14:50:20.449Z,50
2017-05-17T14:51:30.744Z,50
2017-05-17T14:52:41.041Z,50
2017-05-17T14:53:51.597Z,50
2017-05-17T14:55:01.581Z,50
2017-05-17T14:56:11.860Z,50
2017-05-17T14:57:22.174Z,50
2017-05-17T14:58:32.473Z,50
2017-05-17T14:59:42.722Z,50
2017-05-17T15:00:53.004Z,50
2017-05-17T15:02:03.289Z,50
2017-05-17T15:03:13.575Z,50
2017-05-17T15:04:23.573Z,50
2017-05-17T15:05:34.109Z,50
2017-05-17T15:06:44.092Z,50
2017-05-17T15:07:54.400Z,50
2017-05-17T15:09:04.688Z,55
2017-05-17T15:10:14.370Z,50
2017-05-17T15:11:24.906Z,50
2017-05-17T15:12:35.200Z,50
2017-05-17T15:13:45.489Z,50
2017-05-17T15:14:55.475Z,50
2017-05-17T15:16:05.460Z,50
2017-05-17T15:17:16.007Z,50
2017-05-17T15:18:26.302Z,50
2017-05-17T15:19:35.964Z,50
2017-05-17T15:20:46.256Z,50
2017-05-17T15:21:56.566Z,50
2017-05-17T15:23:06.803Z,50
2017-05-17T15:24:17.090Z,50
2017-05-17T15:25:27.403Z,50
2017-05-17T15:26:37.692Z,50
2017-05-17T15:27:47.984Z,50
2017-05-17T15:28:58.538Z,50
2017-05-17T15:30:08.519Z,50
2017-05-17T15:31:18.818Z,50
2017-05-17T15:32:28.798Z,50
2017-05-17T15:33:38.796Z,50
2017-05-17T15:34:49.035Z,50
2017-05-17T15:35:59.337Z,50
2017-05-17T15:37:09.322Z,50
2017-05-17T15:38:19.615Z,50
2017-05-17T15:39:29.281Z,50
2017-05-17T15:40:39.525Z,50
2017-05-17T15:41:49.520Z,50
2017-05-17T15:42:59.814Z,50
2017-05-17T15:44:10.121Z,50
2017-05-17T15:45:20.422Z,50
2017-05-17T15:46:31.009Z,50
2017-05-17T15:47:41.306Z,50
2017-05-17T15:48:51.619Z,50
2017-05-17T15:50:01.604Z,50
2017-05-17T15:51:11.903Z,50
2017-05-17T15:52:22.453Z,50
2017-05-17T15:53:32.452Z,50
2017-05-17T15:54:42.744Z,50
2017-05-17T15:55:53.046Z,50
2017-05-17T15:57:03.337Z,50
2017-05-17T15:58:13.253Z,50
2017-05-17T15:59:23.244Z,50
2017-05-17T16:00:33.542Z,50
2017-05-17T16:01:43.832Z,50
2017-05-17T16:02:53.827Z,55
2017-05-17T16:04:04.367Z,55
2017-05-17T16:05:14.679Z,55
2017-05-17T16:06:24.972Z,55
2017-05-17T16:07:35.266Z,55
2017-05-17T16:08:45.559Z,55
2017-05-17T16:09:55.481Z,55
2017-05-17T16:11:05.471Z,55
2017-05-17T16:12:15.469Z,55
2017-05-17T16:13:25.444Z,55
2017-05-17T16:14:35.438Z,50
2017-05-17T16:15:45.985Z,50
2017-05-17T16:16:56.292Z,50
2017-05-17T16:18:06.586Z,50
2017-05-17T16:19:16.568Z,50
2017-05-17T16:20:26.860Z,50
2017-05-17T16:21:37.452Z,50
2017-05-17T16:22:47.429Z,50
2017-05-17T16:23:57.724Z,50
2017-05-17T16:25:07.708Z,50
2017-05-17T16:26:17.689Z,50
2017-05-17T16:27:27.944Z,50
2017-05-17T16:28:38.255Z,50
2017-05-17T16:29:48.237Z,50
2017-05-17T16:30:58.289Z,50
2017-05-17T16:32:08.271Z,50
2017-05-17T16:33:18.878Z,45
2017-05-17T16:34:29.173Z,45
2017-05-17T16:35:39.467Z,45
2017-05-17T16:36:49.756Z,45
2017-05-17T16:38:00.057Z,45
2017-05-17T16:39:10.624Z,45
2017-05-17T16:40:20.938Z,45
2017-05-17T16:41:31.239Z,45
2017-05-17T16:42:40.905Z,45
2017-05-17T16:43:51.197Z,45
2017-05-17T16:45:01.745Z,45
2017-05-17T16:46:12.041Z,45